sensor_id;sensor_type;location;lat;lon;timestamp;pressure;altitude;pressure_sealevel;temperature;humidity
75063;BME280;63981;51.052;13.754;2023-06-22T00:02:17;100655.94;;;19.79;79.57
75063;BME280;63981;51.052;13.754;2023-06-22T00:04:43;100663.22;;;19.87;79.27
75063;BME280;63981;51.052;13.754;2023-06-22T00:07:09;100621.78;;;19.45;79.66
75063;BME280;63981;51.052;13.754;2023-06-22T00:09:35;100661.78;;;19.65;79.79
75063;BME280;63981;51.052;13.754;2023-06-22T00:12:01;100666.38;;;19.55;80.51
75063;BME280;63981;51.052;13.754;2023-06-22T00:14:27;100637.19;;;19.24;80.45
75063;BME280;63981;51.052;13.754;2023-06-22T00:16:53;100665.84;;;19.41;80.65
75063;BME280;63981;51.052;13.754;2023-06-22T00:19:23;100672.28;;;19.49;80.39
75063;BME280;63981;51.052;13.754;2023-06-22T00:21:52;100672.88;;;19.42;81.22
75063;BME280;63981;51.052;13.754;2023-06-22T00:24:20;100649.63;;;19.15;80.70
75063;BME280;63981;51.052;13.754;2023-06-22T00:26:47;100685.75;;;19.20;80.93
75063;BME280;63981;51.052;13.754;2023-06-22T00:29:13;100689.16;;;19.12;81.14
75063;BME280;63981;51.052;13.754;2023-06-22T00:31:39;100694.94;;;19.07;81.70
75063;BME280;63981;51.052;13.754;2023-06-22T00:34:04;100690.72;;;19.05;81.80
75063;BME280;63981;51.052;13.754;2023-06-22T00:36:37;100688.88;;;19.15;80.94
75063;BME280;63981;51.052;13.754;2023-06-22T00:39:03;100694.84;;;19.36;80.89
75063;BME280;63981;51.052;13.754;2023-06-22T00:41:29;100690.59;;;19.43;81.31
75063;BME280;63981;51.052;13.754;2023-06-22T00:43:56;100697.66;;;19.35;81.73
75063;BME280;63981;51.052;13.754;2023-06-22T00:46:23;100692.25;;;19.17;81.60
75063;BME280;63981;51.052;13.754;2023-06-22T00:48:51;100696.63;;;19.08;82.58
75063;BME280;63981;51.052;13.754;2023-06-22T00:51:18;100686.78;;;18.99;82.69
75063;BME280;63981;51.052;13.754;2023-06-22T00:53:51;100682.53;;;19.16;82.78
75063;BME280;63981;51.052;13.754;2023-06-22T00:56:19;100684.50;;;19.14;81.87
75063;BME280;63981;51.052;13.754;2023-06-22T00:58:46;100692.97;;;19.00;82.14
75063;BME280;63981;51.052;13.754;2023-06-22T01:01:13;100657.19;;;18.73;82.66
75063;BME280;63981;51.052;13.754;2023-06-22T01:03:39;100685.69;;;18.82;83.22
75063;BME280;63981;51.052;13.754;2023-06-22T01:06:10;100681.94;;;18.75;83.59
75063;BME280;63981;51.052;13.754;2023-06-22T01:08:48;100679.97;;;18.77;84.47
75063;BME280;63981;51.052;13.754;2023-06-22T01:11:26;100644.13;;;18.51;83.27
75063;BME280;63981;51.052;13.754;2023-06-22T01:14:06;100673.59;;;18.59;83.93
75063;BME280;63981;51.052;13.754;2023-06-22T01:16:37;100669.41;;;18.56;83.68
75063;BME280;63981;51.052;13.754;2023-06-22T01:19:45;100684.03;;;18.62;84.81
75063;BME280;63981;51.052;13.754;2023-06-22T01:22:16;100657.47;;;18.41;85.14
75063;BME280;63981;51.052;13.754;2023-06-22T01:28:05;100679.66;;;18.42;84.70
75063;BME280;63981;51.052;13.754;2023-06-22T01:30:42;100641.44;;;18.32;86.01
75063;BME280;63981;51.052;13.754;2023-06-22T01:33:11;100693.03;;;18.71;85.89
75063;BME280;63981;51.052;13.754;2023-06-22T01:35:38;100687.94;;;18.87;85.50
75063;BME280;63981;51.052;13.754;2023-06-22T01:38:06;100675.41;;;18.97;85.52
75063;BME280;63981;51.052;13.754;2023-06-22T01:40:33;100682.78;;;19.23;84.73
75063;BME280;63981;51.052;13.754;2023-06-22T01:43:01;100605.03;;;18.69;84.53
75063;BME280;63981;51.052;13.754;2023-06-22T01:45:28;100694.09;;;19.07;84.97
75063;BME280;63981;51.052;13.754;2023-06-22T01:47:54;100691.66;;;19.13;84.87
75063;BME280;63981;51.052;13.754;2023-06-22T01:50:20;100686.06;;;19.07;84.51
75063;BME280;63981;51.052;13.754;2023-06-22T01:52:46;100679.06;;;19.06;84.95
75063;BME280;63981;51.052;13.754;2023-06-22T01:55:12;100682.03;;;19.03;85.20
75063;BME280;63981;51.052;13.754;2023-06-22T01:57:39;100682.03;;;19.03;84.99
75063;BME280;63981;51.052;13.754;2023-06-22T02:00:15;100692.28;;;18.98;85.01
75063;BME280;63981;51.052;13.754;2023-06-22T02:03:08;100683.44;;;18.88;84.70
75063;BME280;63981;51.052;13.754;2023-06-22T02:05:39;100678.09;;;18.88;85.02
75063;BME280;63981;51.052;13.754;2023-06-22T02:08:11;100635.28;;;18.50;85.08
75063;BME280;63981;51.052;13.754;2023-06-22T02:10:38;100679.53;;;18.82;85.52
75063;BME280;63981;51.052;13.754;2023-06-22T02:13:07;100677.44;;;18.76;85.26
75063;BME280;63981;51.052;13.754;2023-06-22T02:15:34;100681.50;;;18.70;86.39
75063;BME280;63981;51.052;13.754;2023-06-22T02:18:01;100676.59;;;18.75;85.80
75063;BME280;63981;51.052;13.754;2023-06-22T02:20:27;100673.78;;;18.67;85.65
75063;BME280;63981;51.052;13.754;2023-06-22T02:22:52;100649.19;;;18.44;86.01
75063;BME280;63981;51.052;13.754;2023-06-22T02:25:18;100673.50;;;18.41;85.85
75063;BME280;63981;51.052;13.754;2023-06-22T02:27:45;100666.19;;;18.24;86.10
75063;BME280;63981;51.052;13.754;2023-06-22T02:30:12;100685.72;;;18.24;86.88
75063;BME280;63981;51.052;13.754;2023-06-22T02:32:38;100679.41;;;18.25;86.18
75063;BME280;63981;51.052;13.754;2023-06-22T02:35:08;100680.66;;;18.50;87.23
75063;BME280;63981;51.052;13.754;2023-06-22T02:37:35;100671.94;;;18.58;87.40
75063;BME280;63981;51.052;13.754;2023-06-22T02:40:06;100680.78;;;18.49;87.11
75063;BME280;63981;51.052;13.754;2023-06-22T02:42:33;100688.78;;;18.49;86.55
75063;BME280;63981;51.052;13.754;2023-06-22T02:44:59;100699.63;;;18.38;87.80
75063;BME280;63981;51.052;13.754;2023-06-22T02:47:26;100702.03;;;18.50;87.25
75063;BME280;63981;51.052;13.754;2023-06-22T02:49:52;100703.13;;;18.48;87.58
75063;BME280;63981;51.052;13.754;2023-06-22T02:52:18;100702.84;;;18.41;87.75
75063;BME280;63981;51.052;13.754;2023-06-22T02:54:44;100702.56;;;18.25;87.43
75063;BME280;63981;51.052;13.754;2023-06-22T02:57:12;100706.22;;;18.24;87.39
75063;BME280;63981;51.052;13.754;2023-06-22T02:59:41;100677.97;;;18.12;87.43
75063;BME280;63981;51.052;13.754;2023-06-22T03:02:09;100693.56;;;18.16;87.76
75063;BME280;63981;51.052;13.754;2023-06-22T03:04:35;100695.53;;;18.14;87.86
75063;BME280;63981;51.052;13.754;2023-06-22T03:07:01;100690.72;;;18.08;87.88
75063;BME280;63981;51.052;13.754;2023-06-22T03:09:29;100703.50;;;18.05;88.45
75063;BME280;63981;51.052;13.754;2023-06-22T03:11:56;100703.66;;;18.03;88.86
75063;BME280;63981;51.052;13.754;2023-06-22T03:14:25;100708.44;;;18.00;88.11
75063;BME280;63981;51.052;13.754;2023-06-22T03:16:52;100634.66;;;17.69;88.39
75063;BME280;63981;51.052;13.754;2023-06-22T03:19:18;100697.06;;;18.07;88.69
75063;BME280;63981;51.052;13.754;2023-06-22T03:21:45;100686.97;;;18.20;88.82
75063;BME280;63981;51.052;13.754;2023-06-22T03:24:11;100686.53;;;18.15;88.12
75063;BME280;63981;51.052;13.754;2023-06-22T03:26:37;100670.56;;;18.25;88.72
75063;BME280;63981;51.052;13.754;2023-06-22T03:29:03;100658.16;;;18.34;87.46
75063;BME280;63981;51.052;13.754;2023-06-22T03:31:30;100648.03;;;18.47;86.73
75063;BME280;63981;51.052;13.754;2023-06-22T03:33:56;100650.88;;;18.65;86.05
75063;BME280;63981;51.052;13.754;2023-06-22T03:36:23;100654.53;;;18.64;85.63
75063;BME280;63981;51.052;13.754;2023-06-22T03:38:49;100667.31;;;18.70;86.16
75063;BME280;63981;51.052;13.754;2023-06-22T03:41:16;100644.97;;;18.42;86.11
75063;BME280;63981;51.052;13.754;2023-06-22T03:43:43;100672.50;;;18.71;85.98
75063;BME280;63981;51.052;13.754;2023-06-22T03:46:09;100669.69;;;18.82;85.24
75063;BME280;63981;51.052;13.754;2023-06-22T03:48:34;100662.66;;;18.81;85.62
75063;BME280;63981;51.052;13.754;2023-06-22T03:51:01;100673.63;;;18.78;85.10
75063;BME280;63981;51.052;13.754;2023-06-22T03:53:27;100676.00;;;18.91;84.57
75063;BME280;63981;51.052;13.754;2023-06-22T03:55:53;100671.34;;;18.93;84.48
75063;BME280;63981;51.052;13.754;2023-06-22T03:58:20;100670.34;;;19.04;84.34
75063;BME280;63981;51.052;13.754;2023-06-22T04:00:50;100674.56;;;18.97;84.35
75063;BME280;63981;51.052;13.754;2023-06-22T04:03:16;100675.31;;;18.89;84.47
75063;BME280;63981;51.052;13.754;2023-06-22T04:05:46;100680.34;;;19.02;83.55
75063;BME280;63981;51.052;13.754;2023-06-22T04:08:13;100668.38;;;18.96;83.33
75063;BME280;63981;51.052;13.754;2023-06-22T04:10:39;100682.56;;;18.97;83.17
75063;BME280;63981;51.052;13.754;2023-06-22T04:13:05;100689.59;;;18.98;83.45
75063;BME280;63981;51.052;13.754;2023-06-22T04:15:31;100694.81;;;18.99;82.84
75063;BME280;63981;51.052;13.754;2023-06-22T04:17:56;100691.13;;;19.10;82.75
75063;BME280;63981;51.052;13.754;2023-06-22T04:20:23;100699.97;;;19.10;82.39
75063;BME280;63981;51.052;13.754;2023-06-22T04:22:54;100649.22;;;19.01;81.11
75063;BME280;63981;51.052;13.754;2023-06-22T04:25:20;100694.84;;;19.27;81.62
75063;BME280;63981;51.052;13.754;2023-06-22T04:27:46;100694.75;;;19.19;81.79
75063;BME280;63981;51.052;13.754;2023-06-22T04:30:12;100687.41;;;19.30;81.51
75063;BME280;63981;51.052;13.754;2023-06-22T04:32:40;100688.06;;;19.42;80.85
75063;BME280;63981;51.052;13.754;2023-06-22T04:35:06;100687.22;;;19.41;81.11
75063;BME280;63981;51.052;13.754;2023-06-22T04:37:33;100667.94;;;19.38;80.67
75063;BME280;63981;51.052;13.754;2023-06-22T04:39:59;100685.66;;;19.39;80.56
75063;BME280;63981;51.052;13.754;2023-06-22T04:42:26;100696.69;;;19.73;79.69
75063;BME280;63981;51.052;13.754;2023-06-22T04:44:52;100714.03;;;19.69;80.00
75063;BME280;63981;51.052;13.754;2023-06-22T04:47:18;100706.16;;;19.67;79.43
75063;BME280;63981;51.052;13.754;2023-06-22T04:49:44;100726.06;;;19.83;79.11
75063;BME280;63981;51.052;13.754;2023-06-22T04:52:12;100721.78;;;19.90;79.07
75063;BME280;63981;51.052;13.754;2023-06-22T04:54:39;100729.25;;;20.14;77.82
75063;BME280;63981;51.052;13.754;2023-06-22T04:57:07;100726.44;;;20.33;77.44
75063;BME280;63981;51.052;13.754;2023-06-22T04:59:37;100740.16;;;20.66;75.70
75063;BME280;63981;51.052;13.754;2023-06-22T05:02:05;100742.47;;;20.43;76.22
75063;BME280;63981;51.052;13.754;2023-06-22T05:04:31;100730.56;;;20.27;76.38
75063;BME280;63981;51.052;13.754;2023-06-22T05:06:59;100743.78;;;20.29;76.59
75063;BME280;63981;51.052;13.754;2023-06-22T05:09:25;100742.59;;;20.41;76.37
75063;BME280;63981;51.052;13.754;2023-06-22T05:11:51;100761.94;;;20.35;76.50
75063;BME280;63981;51.052;13.754;2023-06-22T05:14:17;100768.13;;;20.63;75.32
75063;BME280;63981;51.052;13.754;2023-06-22T05:16:44;100777.53;;;20.85;75.18
75063;BME280;63981;51.052;13.754;2023-06-22T05:19:10;100778.75;;;20.90;74.16
75063;BME280;63981;51.052;13.754;2023-06-22T05:21:36;100775.59;;;20.95;73.45
75063;BME280;63981;51.052;13.754;2023-06-22T05:24:02;100770.41;;;21.19;72.83
75063;BME280;63981;51.052;13.754;2023-06-22T05:26:32;100774.13;;;21.44;72.53
75063;BME280;63981;51.052;13.754;2023-06-22T05:29:00;100755.25;;;21.54;71.14
75063;BME280;63981;51.052;13.754;2023-06-22T05:31:27;100765.16;;;21.28;71.71
75063;BME280;63981;51.052;13.754;2023-06-22T05:33:53;100772.09;;;21.38;71.88
75063;BME280;63981;51.052;13.754;2023-06-22T05:36:20;100776.72;;;21.54;71.13
75063;BME280;63981;51.052;13.754;2023-06-22T05:38:47;100760.41;;;21.47;71.19
75063;BME280;63981;51.052;13.754;2023-06-22T05:41:13;100755.84;;;21.74;71.15
75063;BME280;63981;51.052;13.754;2023-06-22T05:43:40;100737.13;;;22.32;68.83
75063;BME280;63981;51.052;13.754;2023-06-22T05:46:06;100740.69;;;21.57;70.99
75063;BME280;63981;51.052;13.754;2023-06-22T05:48:31;100751.06;;;21.60;70.55
75063;BME280;63981;51.052;13.754;2023-06-22T05:50:57;100736.13;;;21.49;71.21
75063;BME280;63981;51.052;13.754;2023-06-22T05:53:23;100751.25;;;21.92;70.55
75063;BME280;63981;51.052;13.754;2023-06-22T05:55:49;100748.00;;;22.15;70.03
75063;BME280;63981;51.052;13.754;2023-06-22T05:58:33;100746.78;;;22.09;69.60
75063;BME280;63981;51.052;13.754;2023-06-22T06:00:59;100746.72;;;22.51;68.07
75063;BME280;63981;51.052;13.754;2023-06-22T06:03:26;100736.88;;;22.10;69.12
75063;BME280;63981;51.052;13.754;2023-06-22T06:05:54;100727.75;;;22.77;67.63
75063;BME280;63981;51.052;13.754;2023-06-22T06:08:20;100733.31;;;22.67;67.85
75063;BME280;63981;51.052;13.754;2023-06-22T06:10:45;100733.06;;;22.20;68.57
75063;BME280;63981;51.052;13.754;2023-06-22T06:13:11;100732.94;;;22.46;68.05
75063;BME280;63981;51.052;13.754;2023-06-22T06:15:37;100696.81;;;22.24;67.33
75063;BME280;63981;51.052;13.754;2023-06-22T06:18:04;100729.72;;;22.34;67.67
75063;BME280;63981;51.052;13.754;2023-06-22T06:20:31;100720.19;;;22.81;66.76
75063;BME280;63981;51.052;13.754;2023-06-22T06:22:57;100696.84;;;22.81;65.58
75063;BME280;63981;51.052;13.754;2023-06-22T06:25:23;100689.59;;;23.70;63.52
75063;BME280;63981;51.052;13.754;2023-06-22T06:27:50;100654.91;;;23.36;63.04
75063;BME280;63981;51.052;13.754;2023-06-22T06:30:18;100646.03;;;23.66;63.24
75063;BME280;63981;51.052;13.754;2023-06-22T06:32:45;100603.47;;;23.93;61.95
75063;BME280;63981;51.052;13.754;2023-06-22T06:35:13;100606.97;;;24.01;61.93
75063;BME280;63981;51.052;13.754;2023-06-22T06:37:42;100606.91;;;24.70;60.52
75063;BME280;63981;51.052;13.754;2023-06-22T06:40:10;100621.00;;;24.57;60.18
75063;BME280;63981;51.052;13.754;2023-06-22T06:42:38;100635.81;;;25.28;59.03
75063;BME280;63981;51.052;13.754;2023-06-22T06:45:07;100637.16;;;24.42;60.39
75063;BME280;63981;51.052;13.754;2023-06-22T06:47:33;100630.78;;;24.12;61.79
75063;BME280;63981;51.052;13.754;2023-06-22T06:49:59;100633.94;;;23.70;63.11
75063;BME280;63981;51.052;13.754;2023-06-22T06:52:25;100615.78;;;23.56;63.58
75063;BME280;63981;51.052;13.754;2023-06-22T06:54:51;100613.34;;;23.38;64.40
75063;BME280;63981;51.052;13.754;2023-06-22T06:57:18;100610.44;;;23.87;62.99
75063;BME280;63981;51.052;13.754;2023-06-22T06:59:44;100615.22;;;24.00;62.53
75063;BME280;63981;51.052;13.754;2023-06-22T07:02:10;100626.91;;;24.15;61.40
75063;BME280;63981;51.052;13.754;2023-06-22T07:04:35;100624.03;;;24.17;61.32
75063;BME280;63981;51.052;13.754;2023-06-22T07:07:02;100626.66;;;24.25;61.31
75063;BME280;63981;51.052;13.754;2023-06-22T07:09:28;100626.75;;;24.92;60.14
75063;BME280;63981;51.052;13.754;2023-06-22T07:11:54;100630.78;;;24.73;59.13
75063;BME280;63981;51.052;13.754;2023-06-22T07:14:20;100633.47;;;24.58;59.34
75063;BME280;63981;51.052;13.754;2023-06-22T07:16:45;100636.88;;;24.75;58.51
75063;BME280;63981;51.052;13.754;2023-06-22T07:19:11;100614.69;;;25.03;57.93
75063;BME280;63981;51.052;13.754;2023-06-22T07:21:38;100634.03;;;25.86;55.67
75063;BME280;63981;51.052;13.754;2023-06-22T07:24:05;100632.41;;;25.71;55.77
75063;BME280;63981;51.052;13.754;2023-06-22T07:26:32;100631.78;;;25.54;56.69
75063;BME280;63981;51.052;13.754;2023-06-22T07:28:58;100615.19;;;26.14;54.91
75063;BME280;63981;51.052;13.754;2023-06-22T07:31:27;100608.53;;;26.10;53.92
75063;BME280;63981;51.052;13.754;2023-06-22T07:33:52;100633.38;;;26.42;53.40
75063;BME280;63981;51.052;13.754;2023-06-22T07:36:18;100617.19;;;27.39;51.26
75063;BME280;63981;51.052;13.754;2023-06-22T07:38:44;100622.41;;;27.88;50.82
75063;BME280;63981;51.052;13.754;2023-06-22T07:41:10;100623.72;;;28.98;49.00
75063;BME280;63981;51.052;13.754;2023-06-22T07:43:36;100618.34;;;28.52;48.75
75063;BME280;63981;51.052;13.754;2023-06-22T07:46:06;100608.25;;;28.99;47.05
75063;BME280;63981;51.052;13.754;2023-06-22T07:48:31;100612.88;;;29.05;47.84
75063;BME280;63981;51.052;13.754;2023-06-22T07:50:57;100620.63;;;28.29;49.50
75063;BME280;63981;51.052;13.754;2023-06-22T07:53:23;100622.50;;;28.68;49.30
75063;BME280;63981;51.052;13.754;2023-06-22T07:55:50;100621.00;;;29.70;48.01
75063;BME280;63981;51.052;13.754;2023-06-22T07:58:16;100621.84;;;30.08;47.29
75063;BME280;63981;51.052;13.754;2023-06-22T08:00:44;100611.31;;;30.68;44.71
75063;BME280;63981;51.052;13.754;2023-06-22T08:03:10;100615.84;;;30.99;44.87
75063;BME280;63981;51.052;13.754;2023-06-22T08:05:36;100598.72;;;30.74;43.40
75063;BME280;63981;51.052;13.754;2023-06-22T08:08:02;100607.66;;;29.55;44.95
75063;BME280;63981;51.052;13.754;2023-06-22T08:10:28;100595.97;;;28.96;46.03
75063;BME280;63981;51.052;13.754;2023-06-22T08:12:53;100604.31;;;28.95;46.56
75063;BME280;63981;51.052;13.754;2023-06-22T08:15:19;100602.09;;;30.44;43.01
75063;BME280;63981;51.052;13.754;2023-06-22T08:17:45;100576.25;;;30.35;42.10
75063;BME280;63981;51.052;13.754;2023-06-22T08:20:14;100593.34;;;30.67;42.26
75063;BME280;63981;51.052;13.754;2023-06-22T08:22:41;100576.44;;;31.38;40.55
75063;BME280;63981;51.052;13.754;2023-06-22T08:25:07;100588.84;;;31.83;39.07
75063;BME280;63981;51.052;13.754;2023-06-22T08:27:34;100577.16;;;31.09;40.65
75063;BME280;63981;51.052;13.754;2023-06-22T08:30:00;100578.72;;;30.37;41.52
75063;BME280;63981;51.052;13.754;2023-06-22T08:32:27;100600.44;;;31.30;39.78
75063;BME280;63981;51.052;13.754;2023-06-22T08:34:54;100583.91;;;32.33;37.09
75063;BME280;63981;51.052;13.754;2023-06-22T08:37:20;100584.56;;;33.62;34.94
75063;BME280;63981;51.052;13.754;2023-06-22T08:39:46;100523.44;;;33.00;34.42
75063;BME280;63981;51.052;13.754;2023-06-22T08:42:12;100578.06;;;31.58;37.75
75063;BME280;63981;51.052;13.754;2023-06-22T08:44:38;100577.97;;;32.95;36.05
75063;BME280;63981;51.052;13.754;2023-06-22T08:47:04;100570.94;;;32.75;35.90
75063;BME280;63981;51.052;13.754;2023-06-22T08:49:30;100570.41;;;33.25;35.18
75063;BME280;63981;51.052;13.754;2023-06-22T08:51:55;100572.56;;;34.59;33.55
75063;BME280;63981;51.052;13.754;2023-06-22T08:54:22;100579.41;;;33.49;33.72
75063;BME280;63981;51.052;13.754;2023-06-22T08:56:48;100571.59;;;35.47;31.04
75063;BME280;63981;51.052;13.754;2023-06-22T08:59:14;100569.09;;;34.47;32.33
75063;BME280;63981;51.052;13.754;2023-06-22T09:01:40;100558.78;;;36.12;29.48
75063;BME280;63981;51.052;13.754;2023-06-22T09:04:06;100574.91;;;35.50;30.19
75063;BME280;63981;51.052;13.754;2023-06-22T09:06:34;100563.50;;;34.92;30.72
75063;BME280;63981;51.052;13.754;2023-06-22T09:09:00;100553.63;;;38.08;26.75
75063;BME280;63981;51.052;13.754;2023-06-22T09:11:26;100556.28;;;38.80;25.81
75063;BME280;63981;51.052;13.754;2023-06-22T09:13:52;100553.31;;;38.66;25.26
75063;BME280;63981;51.052;13.754;2023-06-22T09:16:19;100546.88;;;40.00;24.78
75063;BME280;63981;51.052;13.754;2023-06-22T09:18:48;100542.97;;;39.02;24.54
75063;BME280;63981;51.052;13.754;2023-06-22T09:21:14;100520.03;;;39.22;25.11
75063;BME280;63981;51.052;13.754;2023-06-22T09:23:39;100527.84;;;39.00;25.76
75063;BME280;63981;51.052;13.754;2023-06-22T09:26:05;100544.22;;;36.44;27.61
75063;BME280;63981;51.052;13.754;2023-06-22T09:28:31;100542.31;;;39.31;25.03
75063;BME280;63981;51.052;13.754;2023-06-22T09:30:58;100541.25;;;38.21;25.98
75063;BME280;63981;51.052;13.754;2023-06-22T09:33:26;100544.75;;;38.73;25.54
75063;BME280;63981;51.052;13.754;2023-06-22T09:35:52;100521.44;;;35.52;28.46
75063;BME280;63981;51.052;13.754;2023-06-22T09:38:17;100530.16;;;37.60;27.20
75063;BME280;63981;51.052;13.754;2023-06-22T09:40:43;100517.25;;;38.47;26.14
75063;BME280;63981;51.052;13.754;2023-06-22T09:43:11;100509.81;;;37.51;26.06
75063;BME280;63981;51.052;13.754;2023-06-22T09:45:37;100498.34;;;39.84;24.00
75063;BME280;63981;51.052;13.754;2023-06-22T09:48:03;100537.09;;;33.85;31.26
75063;BME280;63981;51.052;13.754;2023-06-22T09:50:29;100488.56;;;40.30;23.34
75063;BME280;63981;51.052;13.754;2023-06-22T09:52:55;100518.91;;;38.38;25.90
75063;BME280;63981;51.052;13.754;2023-06-22T09:55:22;100523.53;;;37.46;26.04
75063;BME280;63981;51.052;13.754;2023-06-22T09:57:47;100521.91;;;37.55;26.63
75063;BME280;63981;51.052;13.754;2023-06-22T10:00:16;100520.16;;;40.96;22.53
75063;BME280;63981;51.052;13.754;2023-06-22T10:02:42;100503.00;;;39.00;25.11
75063;BME280;63981;51.052;13.754;2023-06-22T10:05:08;100511.69;;;42.00;20.72
75063;BME280;63981;51.052;13.754;2023-06-22T10:07:34;100505.88;;;40.41;22.96
75063;BME280;63981;51.052;13.754;2023-06-22T10:10:00;100514.94;;;36.22;27.83
75063;BME280;63981;51.052;13.754;2023-06-22T10:12:27;100514.34;;;35.07;29.54
75063;BME280;63981;51.052;13.754;2023-06-22T10:14:53;100481.09;;;36.12;28.33
75063;BME280;63981;51.052;13.754;2023-06-22T10:17:19;100501.75;;;41.48;21.66
75063;BME280;63981;51.052;13.754;2023-06-22T10:19:44;100504.84;;;38.55;24.92
75063;BME280;63981;51.052;13.754;2023-06-22T10:22:10;100493.63;;;39.01;24.88
75063;BME280;63981;51.052;13.754;2023-06-22T10:24:36;100501.63;;;39.02;24.18
75063;BME280;63981;51.052;13.754;2023-06-22T10:27:04;100494.81;;;35.47;28.55
75063;BME280;63981;51.052;13.754;2023-06-22T10:29:29;100492.84;;;36.07;28.67
75063;BME280;63981;51.052;13.754;2023-06-22T10:31:55;100465.78;;;37.56;27.20
75063;BME280;63981;51.052;13.754;2023-06-22T10:34:21;100473.84;;;44.09;20.26
75063;BME280;63981;51.052;13.754;2023-06-22T10:36:47;100443.03;;;44.59;19.43
75063;BME280;63981;51.052;13.754;2023-06-22T10:39:14;100438.56;;;46.05;17.36
75063;BME280;63981;51.052;13.754;2023-06-22T10:41:40;100468.50;;;39.51;24.00
75063;BME280;63981;51.052;13.754;2023-06-22T10:44:06;100472.16;;;38.98;25.59
75063;BME280;63981;51.052;13.754;2023-06-22T10:46:32;100466.63;;;38.23;27.24
75063;BME280;63981;51.052;13.754;2023-06-22T10:48:58;100471.94;;;38.84;25.49
75063;BME280;63981;51.052;13.754;2023-06-22T10:51:24;100458.84;;;40.17;23.79
75063;BME280;63981;51.052;13.754;2023-06-22T10:53:51;100475.88;;;36.10;28.82
75063;BME280;63981;51.052;13.754;2023-06-22T10:56:17;100422.91;;;36.15;28.82
75063;BME280;63981;51.052;13.754;2023-06-22T10:58:44;100458.50;;;36.89;28.13
75063;BME280;63981;51.052;13.754;2023-06-22T11:01:10;100437.34;;;34.05;32.31
75063;BME280;63981;51.052;13.754;2023-06-22T11:03:36;100457.22;;;34.17;32.32
75063;BME280;63981;51.052;13.754;2023-06-22T11:06:02;100452.00;;;37.36;27.08
75063;BME280;63981;51.052;13.754;2023-06-22T11:08:28;100454.88;;;36.83;28.39
75063;BME280;63981;51.052;13.754;2023-06-22T11:10:54;100471.94;;;33.49;33.03
75063;BME280;63981;51.052;13.754;2023-06-22T11:13:19;100456.31;;;33.78;33.03
75063;BME280;63981;51.052;13.754;2023-06-22T11:15:45;100431.94;;;37.66;26.94
75063;BME280;63981;51.052;13.754;2023-06-22T11:18:11;100452.25;;;41.79;21.59
75063;BME280;63981;51.052;13.754;2023-06-22T11:20:37;100443.50;;;39.77;24.31
75063;BME280;63981;51.052;13.754;2023-06-22T11:23:07;100444.34;;;37.53;26.88
75063;BME280;63981;51.052;13.754;2023-06-22T11:25:33;100445.41;;;37.72;27.27
75063;BME280;63981;51.052;13.754;2023-06-22T11:28:04;100445.63;;;36.05;29.73
75063;BME280;63981;51.052;13.754;2023-06-22T11:30:30;100431.66;;;37.98;27.10
75063;BME280;63981;51.052;13.754;2023-06-22T11:32:58;100430.53;;;36.02;29.34
75063;BME280;63981;51.052;13.754;2023-06-22T11:35:24;100432.03;;;36.25;29.45
75063;BME280;63981;51.052;13.754;2023-06-22T11:37:49;100419.28;;;42.65;21.84
75063;BME280;63981;51.052;13.754;2023-06-22T11:40:16;100412.47;;;42.98;20.83
75063;BME280;63981;51.052;13.754;2023-06-22T11:42:43;100405.63;;;45.34;18.54
75063;BME280;63981;51.052;13.754;2023-06-22T11:45:09;100397.78;;;45.92;18.27
75063;BME280;63981;51.052;13.754;2023-06-22T11:47:35;100389.66;;;48.96;15.89
75063;BME280;63981;51.052;13.754;2023-06-22T11:50:02;100389.50;;;51.37;13.23
75063;BME280;63981;51.052;13.754;2023-06-22T11:52:28;100386.44;;;46.64;17.03
75063;BME280;63981;51.052;13.754;2023-06-22T11:54:54;100407.22;;;40.84;22.10
75063;BME280;63981;51.052;13.754;2023-06-22T11:57:20;100384.91;;;37.77;26.13
75063;BME280;63981;51.052;13.754;2023-06-22T11:59:46;100406.13;;;37.77;26.45
75063;BME280;63981;51.052;13.754;2023-06-22T12:02:11;100388.69;;;42.42;20.67
75063;BME280;63981;51.052;13.754;2023-06-22T12:04:37;100383.03;;;41.46;21.29
75063;BME280;63981;51.052;13.754;2023-06-22T12:07:03;100356.13;;;43.65;19.33
75063;BME280;63981;51.052;13.754;2023-06-22T12:09:29;100377.59;;;45.48;16.52
75063;BME280;63981;51.052;13.754;2023-06-22T12:11:54;100368.69;;;45.54;18.32
75063;BME280;63981;51.052;13.754;2023-06-22T12:14:21;100368.06;;;51.71;12.77
75063;BME280;63981;51.052;13.754;2023-06-22T12:16:46;100358.19;;;51.57;12.60
75063;BME280;63981;51.052;13.754;2023-06-22T12:19:12;100354.69;;;51.02;13.40
75063;BME280;63981;51.052;13.754;2023-06-22T12:21:38;100358.16;;;47.08;16.50
75063;BME280;63981;51.052;13.754;2023-06-22T12:24:06;100365.19;;;40.63;22.48
75063;BME280;63981;51.052;13.754;2023-06-22T12:26:31;100362.84;;;41.46;21.87
75063;BME280;63981;51.052;13.754;2023-06-22T12:28:57;100340.84;;;47.47;16.49
75063;BME280;63981;51.052;13.754;2023-06-22T12:31:23;100339.41;;;50.42;13.32
75063;BME280;63981;51.052;13.754;2023-06-22T12:33:49;100343.00;;;48.88;14.81
75063;BME280;63981;51.052;13.754;2023-06-22T12:36:14;100341.00;;;48.49;15.14
75063;BME280;63981;51.052;13.754;2023-06-22T12:38:42;100339.88;;;42.69;19.81
75063;BME280;63981;51.052;13.754;2023-06-22T12:41:07;100337.34;;;39.30;23.76
75063;BME280;63981;51.052;13.754;2023-06-22T12:43:33;100336.50;;;41.16;21.74